createdAt,value
2017-11-26T00:01:36.345Z,82.60
2017-11-26T00:04:09.674Z,81.80
2017-11-26T00:06:42.748Z,83.30
2017-11-26T00:09:15.913Z,82.90
2017-11-26T00:11:48.924Z,81.50
2017-11-26T00:14:22.913Z,80.60
2017-11-26T00:16:59.298Z,82.30
2017-11-26T00:19:32.546Z,82.90
2017-11-26T00:22:05.646Z,82.50
2017-11-26T00:24:38.460Z,82.60
2017-11-26T00:27:11.715Z,82.00
2017-11-26T00:29:44.412Z,79.50
2017-11-26T00:32:17.483Z,80.10
2017-11-26T00:34:50.912Z,80.40
2017-11-26T00:37:24.076Z,80.50
2017-11-26T00:39:57.436Z,80.50
2017-11-26T00:42:30.648Z,79.70
2017-11-26T00:45:04.113Z,81.20
2017-11-26T00:47:36.557Z,81.30
2017-11-26T00:50:09.860Z,80.00
2017-11-26T00:52:42.437Z,78.60
2017-11-26T00:55:14.899Z,80.30
2017-11-26T00:57:47.348Z,80.00
2017-11-26T01:00:20.685Z,79.40
2017-11-26T01:02:54.261Z,80.90
2017-11-26T01:05:27.045Z,79.80
2017-11-26T01:08:00.034Z,81.00
2017-11-26T01:10:33.284Z,79.80
2017-11-26T01:13:06.104Z,79.40
2017-11-26T01:15:38.507Z,79.90
2017-11-26T01:18:11.800Z,80.20
2017-11-26T01:20:44.514Z,79.20
2017-11-26T01:23:16.965Z,79.60
2017-11-26T01:25:49.561Z,80.10
2017-11-26T01:28:22.337Z,78.80
2017-11-26T01:30:55.043Z,80.20
2017-11-26T01:33:28.333Z,80.20
2017-11-26T01:36:01.789Z,79.10
2017-11-26T01:38:35.522Z,80.10
2017-11-26T01:41:08.260Z,79.30
2017-11-26T01:43:40.884Z,78.80
2017-11-26T01:46:13.891Z,79.80
2017-11-26T01:48:47.192Z,79.30
2017-11-26T01:51:20.054Z,77.90
2017-11-26T01:53:53.125Z,78.60
2017-11-26T01:56:25.597Z,76.60
2017-11-26T01:58:59.742Z,78.50
2017-11-26T02:01:32.378Z,77.10
2017-11-26T02:04:04.916Z,77.30
2017-11-26T02:06:38.246Z,78.40
2017-11-26T02:09:10.978Z,77.70
2017-11-26T02:11:43.529Z,77.70
2017-11-26T02:14:16.851Z,79.20
2017-11-26T02:16:49.320Z,78.00
2017-11-26T02:19:22.796Z,78.00
2017-11-26T02:21:55.797Z,78.00
2017-11-26T02:24:29.100Z,78.90
2017-11-26T02:27:02.434Z,80.40
2017-11-26T02:29:35.762Z,77.60
2017-11-26T02:32:20.765Z,77.30
2017-11-26T02:35:06.355Z,78.60
2017-11-26T02:37:39.744Z,78.10
2017-11-26T02:40:12.743Z,77.50
2017-11-26T02:42:45.447Z,77.70
2017-11-26T02:45:18.802Z,76.90
2017-11-26T02:47:52.075Z,77.00
2017-11-26T02:50:26.281Z,77.30
2017-11-26T02:52:58.871Z,76.70
2017-11-26T02:55:32.985Z,77.60
2017-11-26T02:58:06.738Z,77.70
2017-11-26T03:00:39.912Z,77.10
2017-11-26T03:03:12.442Z,76.10
2017-11-26T03:05:45.960Z,77.10
2017-11-26T03:08:19.249Z,76.30
2017-11-26T03:10:53.229Z,76.60
2017-11-26T03:13:26.125Z,76.10
2017-11-26T03:15:59.819Z,77.10
2017-11-26T03:18:33.886Z,76.80
2017-11-26T03:21:06.329Z,76.60
2017-11-26T03:23:38.837Z,77.50
2017-11-26T03:26:11.832Z,76.60
2017-11-26T03:28:45.188Z,76.90
2017-11-26T03:31:18.646Z,77.30
2017-11-26T03:33:51.405Z,76.80
2017-11-26T03:36:23.939Z,76.30
2017-11-26T03:38:56.381Z,77.50
2017-11-26T03:41:28.801Z,77.10
2017-11-26T03:44:01.803Z,76.60
2017-11-26T03:46:34.277Z,76.90
2017-11-26T03:49:06.749Z,77.30
2017-11-26T03:51:39.169Z,76.60
2017-11-26T03:54:11.610Z,76.80
2017-11-26T03:56:44.053Z,76.70
2017-11-26T03:59:16.579Z,77.20
2017-11-26T04:01:48.972Z,77.70
2017-11-26T04:04:21.577Z,77.50
2017-11-26T04:06:53.936Z,77.50
2017-11-26T04:09:27.176Z,77.10
2017-11-26T04:12:00.579Z,78.00
2017-11-26T04:14:33.310Z,77.60
2017-11-26T04:17:06.826Z,77.70
2017-11-26T04:19:39.377Z,76.70
2017-11-26T04:22:12.631Z,77.70
2017-11-26T04:24:45.385Z,76.90
2017-11-26T04:27:18.719Z,77.60
2017-11-26T04:29:51.165Z,78.40
2017-11-26T04:32:23.723Z,78.70
2017-11-26T04:34:57.740Z,79.50
2017-11-26T04:37:31.198Z,79.60
2017-11-26T04:40:03.820Z,79.00
2017-11-26T04:42:36.229Z,79.50
2017-11-26T04:45:09.616Z,80.80
2017-11-26T04:47:43.221Z,79.80
2017-11-26T04:50:15.908Z,79.50
2017-11-26T04:52:48.408Z,79.40
2017-11-26T04:55:20.812Z,79.50
2017-11-26T04:57:54.147Z,80.50
2017-11-26T05:00:27.056Z,80.00
2017-11-26T05:03:00.424Z,80.10
2017-11-26T05:05:33.165Z,79.50
2017-11-26T05:08:05.849Z,78.90
2017-11-26T05:10:38.297Z,78.90
2017-11-26T05:13:11.451Z,79.40
2017-11-26T05:15:44.277Z,79.10
2017-11-26T05:18:17.151Z,78.50
2017-11-26T05:20:50.164Z,79.40
2017-11-26T05:23:23.395Z,78.90
2017-11-26T05:25:56.259Z,79.40
2017-11-26T05:28:30.330Z,79.20
2017-11-26T05:31:02.968Z,78.50
2017-11-26T05:33:36.099Z,79.20
2017-11-26T05:36:09.655Z,79.20
2017-11-26T05:38:42.428Z,79.00
2017-11-26T05:41:15.001Z,79.10
2017-11-26T05:43:49.223Z,80.10
2017-11-26T05:46:22.762Z,79.90
2017-11-26T05:48:56.168Z,79.20
2017-11-26T05:51:29.565Z,80.40
2017-11-26T05:54:02.545Z,80.00
2017-11-26T05:56:35.178Z,80.80
2017-11-26T05:59:07.634Z,81.20
2017-11-26T06:01:40.133Z,80.50
2017-11-26T06:04:12.552Z,81.60
2017-11-26T06:06:45.802Z,80.60
2017-11-26T06:09:18.648Z,79.90
2017-11-26T06:11:51.035Z,80.50
2017-11-26T06:14:24.644Z,80.20
2017-11-26T06:16:58.812Z,80.60
2017-11-26T06:19:32.552Z,81.50
2017-11-26T06:22:05.403Z,81.30
2017-11-26T06:24:38.120Z,80.70
2017-11-26T06:27:10.614Z,81.20
2017-11-26T06:29:44.479Z,81.30
2017-11-26T06:32:17.506Z,80.90
2017-11-26T06:34:50.486Z,81.10
2017-11-26T06:37:23.758Z,82.60
2017-11-26T06:39:56.818Z,81.80
2017-11-26T06:42:30.908Z,80.50
2017-11-26T06:45:04.548Z,79.20
2017-11-26T06:47:38.089Z,80.60
2017-11-26T06:50:10.757Z,80.00
2017-11-26T06:52:43.312Z,80.40
2017-11-26T06:55:16.753Z,80.30
2017-11-26T06:57:54.009Z,80.80
2017-11-26T07:00:27.487Z,80.50
2017-11-26T07:03:00.135Z,80.40
2017-11-26T07:05:32.556Z,80.00
2017-11-26T07:08:05.267Z,80.00
2017-11-26T07:10:37.956Z,80.30
2017-11-26T07:13:10.854Z,80.50
2017-11-26T07:15:44.560Z,81.30
2017-11-26T07:18:17.540Z,81.00
2017-11-26T07:20:51.003Z,80.80
2017-11-26T07:23:23.722Z,80.30
2017-11-26T07:25:56.140Z,79.40
2017-11-26T07:28:28.612Z,79.20
2017-11-26T07:31:01.281Z,79.20
2017-11-26T07:33:34.518Z,79.30
2017-11-26T07:36:07.268Z,79.20
2017-11-26T07:38:39.717Z,79.20
2017-11-26T07:41:12.524Z,79.10
2017-11-26T07:43:45.816Z,78.50
2017-11-26T07:46:18.599Z,78.80
2017-11-26T07:48:51.090Z,78.40
2017-11-26T07:51:23.791Z,78.30
2017-11-26T07:53:57.086Z,77.20
2017-11-26T07:56:29.546Z,78.10
2017-11-26T07:59:02.052Z,78.00
2017-11-26T08:01:34.541Z,77.80
2017-11-26T08:04:08.523Z,78.20
2017-11-26T08:06:42.620Z,76.90
2017-11-26T08:09:15.488Z,76.80
2017-11-26T08:11:48.807Z,77.80
2017-11-26T08:14:21.775Z,77.10
2017-11-26T08:16:54.304Z,77.70
2017-11-26T08:19:26.921Z,77.60
2017-11-26T08:21:59.560Z,77.90
2017-11-26T08:24:32.976Z,77.50
2017-11-26T08:27:05.856Z,76.90
2017-11-26T08:29:38.567Z,76.80
2017-11-26T08:32:11.785Z,76.10
2017-11-26T08:34:44.554Z,75.90
2017-11-26T08:37:17.155Z,75.10
2017-11-26T08:39:50.900Z,75.90
2017-11-26T08:42:24.928Z,76.40
2017-11-26T08:44:58.614Z,75.70
2017-11-26T08:47:31.805Z,75.10
2017-11-26T08:50:05.309Z,75.20
2017-11-26T08:52:39.168Z,74.60
2017-11-26T08:55:13.116Z,75.20
2017-11-26T08:57:46.369Z,74.40
2017-11-26T09:00:19.051Z,74.90
2017-11-26T09:02:51.815Z,74.50
2017-11-26T09:05:25.418Z,74.90
2017-11-26T09:08:02.738Z,72.80
2017-11-26T09:10:35.919Z,72.90
2017-11-26T09:13:09.347Z,72.30
2017-11-26T09:15:42.256Z,71.70
2017-11-26T09:18:14.883Z,70.90
2017-11-26T09:20:48.148Z,70.80
2017-11-26T09:23:21.465Z,70.80
2017-11-26T09:25:54.335Z,70.80
2017-11-26T09:28:28.289Z,69.70
2017-11-26T09:31:03.024Z,70.30
2017-11-26T09:33:36.216Z,70.60
2017-11-26T09:36:09.669Z,69.80
2017-11-26T09:38:42.055Z,68.90
2017-11-26T09:41:15.697Z,68.90
2017-11-26T09:43:48.684Z,68.80
2017-11-26T09:46:22.775Z,69.90
2017-11-26T09:48:55.511Z,69.00
2017-11-26T09:51:29.907Z,68.40
2017-11-26T09:54:05.337Z,67.90
2017-11-26T09:56:40.085Z,69.50
2017-11-26T09:59:14.024Z,69.50
2017-11-26T10:01:48.213Z,68.70
2017-11-26T10:04:21.822Z,68.90
2017-11-26T10:06:55.627Z,69.10
2017-11-26T10:09:28.174Z,68.70
2017-11-26T10:12:00.731Z,68.20
2017-11-26T10:14:35.209Z,68.50
2017-11-26T10:17:08.422Z,67.20
2017-11-26T10:19:41.239Z,68.50
2017-11-26T10:22:15.391Z,68.00
2017-11-26T10:24:50.082Z,66.90
2017-11-26T10:27:23.037Z,66.90
2017-11-26T10:29:58.009Z,66.10
2017-11-26T10:32:31.492Z,66.60
2017-11-26T10:35:04.329Z,67.00
2017-11-26T10:37:36.903Z,67.00
2017-11-26T10:40:09.954Z,66.60
2017-11-26T10:42:44.635Z,68.40
2017-11-26T10:45:18.969Z,67.90
2017-11-26T10:47:51.327Z,67.10
2017-11-26T10:50:24.982Z,68.40
2017-11-26T10:53:01.204Z,67.50
2017-11-26T10:55:34.513Z,67.20
2017-11-26T10:58:07.524Z,67.70
2017-11-26T11:00:40.619Z,67.80
2017-11-26T11:03:14.643Z,68.20
2017-11-26T11:05:49.476Z,68.50
2017-11-26T11:08:23.114Z,68.40
2017-11-26T11:10:56.764Z,68.10
2017-11-26T11:13:29.401Z,68.50
2017-11-26T11:16:01.892Z,68.60
2017-11-26T11:18:35.019Z,69.00
2017-11-26T11:21:08.561Z,67.90
2017-11-26T11:23:43.570Z,67.90
2017-11-26T11:26:16.779Z,67.20
2017-11-26T11:28:49.887Z,67.60
2017-11-26T11:31:23.971Z,67.80
2017-11-26T11:33:57.682Z,68.90
2017-11-26T11:36:30.171Z,68.50
2017-11-26T11:39:04.475Z,68.70
2017-11-26T11:41:38.283Z,68.20
2017-11-26T11:44:11.375Z,68.20
2017-11-26T11:46:45.421Z,68.30
2017-11-26T11:49:18.251Z,68.30
2017-11-26T11:51:52.949Z,67.30
2017-11-26T11:54:26.081Z,66.00
2017-11-26T11:56:59.369Z,66.40
2017-11-26T11:59:31.844Z,66.60
2017-11-26T12:02:04.589Z,66.80
2017-11-26T12:04:37.064Z,66.10
2017-11-26T12:07:11.248Z,66.70
2017-11-26T12:09:44.028Z,65.90
2017-11-26T12:12:18.116Z,67.10
2017-11-26T12:14:51.177Z,66.40
2017-11-26T12:17:25.119Z,66.50
2017-11-26T12:19:58.537Z,66.10
2017-11-26T12:22:32.070Z,66.20
2017-11-26T12:25:05.840Z,66.50
2017-11-26T12:27:38.480Z,66.00
2017-11-26T12:30:14.352Z,68.00
2017-11-26T12:32:48.043Z,67.50
2017-11-26T12:35:21.414Z,68.40
2017-11-26T12:37:54.779Z,69.20
2017-11-26T12:40:29.080Z,69.30
2017-11-26T12:43:02.142Z,70.10
2017-11-26T12:45:37.217Z,70.30
2017-11-26T12:48:10.533Z,71.30
2017-11-26T12:50:44.311Z,71.50
2017-11-26T12:53:17.415Z,71.80
2017-11-26T12:55:51.147Z,72.50
2017-11-26T12:58:24.606Z,72.70
2017-11-26T13:00:59.633Z,74.30
2017-11-26T13:03:33.008Z,73.10
2017-11-26T13:06:07.328Z,74.70
2017-11-26T13:08:41.148Z,74.40
2017-11-26T13:11:13.733Z,74.90
2017-11-26T13:13:47.750Z,75.10
2017-11-26T13:16:20.339Z,74.30
2017-11-26T13:18:52.777Z,74.60
2017-11-26T13:21:25.250Z,73.40
2017-11-26T13:23:58.503Z,74.10
2017-11-26T13:26:31.192Z,73.80
2017-11-26T13:29:04.560Z,73.60
2017-11-26T13:31:38.635Z,72.80
2017-11-26T13:34:12.238Z,72.50
2017-11-26T13:36:45.339Z,71.90
2017-11-26T13:39:17.998Z,71.90
2017-11-26T13:41:50.529Z,71.20
2017-11-26T13:44:23.880Z,69.40
2017-11-26T13:46:58.654Z,69.40
2017-11-26T13:49:50.733Z,69.20
2017-11-26T13:55:15.695Z,66.30
2017-11-26T13:57:48.361Z,65.80
2017-11-26T14:00:21.713Z,65.80
2017-11-26T14:02:55.045Z,64.80
2017-11-26T14:05:28.415Z,64.30
2017-11-26T14:08:01.640Z,64.30
2017-11-26T14:10:34.882Z,63.90
2017-11-26T14:13:08.346Z,63.70
2017-11-26T14:15:41.435Z,65.20
2017-11-26T14:18:14.158Z,64.30
2017-11-26T14:20:48.209Z,64.80
2017-11-26T14:23:21.480Z,64.00
2017-11-26T14:25:54.046Z,63.30
2017-11-26T14:28:27.046Z,64.10
2017-11-26T14:31:00.440Z,64.90
2017-11-26T14:33:34.797Z,64.40
2017-11-26T14:36:08.109Z,64.10
2017-11-26T14:38:41.288Z,63.60
2017-11-26T14:41:22.396Z,64.50
2017-11-26T14:43:55.696Z,64.90
2017-11-26T14:46:29.098Z,65.70
2017-11-26T14:49:02.021Z,64.80
2017-11-26T14:51:35.288Z,64.50
2017-11-26T14:54:07.705Z,65.50
2017-11-26T14:56:42.065Z,65.10
2017-11-26T14:59:15.163Z,66.70
2017-11-26T15:01:48.362Z,66.40
2017-11-26T15:04:22.015Z,67.40
2017-11-26T15:06:54.648Z,66.80
2017-11-26T15:09:27.487Z,66.40
2017-11-26T15:12:00.565Z,65.70
2017-11-26T15:14:34.003Z,66.00
2017-11-26T15:17:07.178Z,66.70
2017-11-26T15:19:39.752Z,66.80
2017-11-26T15:22:14.295Z,68.20
2017-11-26T15:24:48.174Z,67.60
2017-11-26T15:27:21.903Z,68.10
2017-11-26T15:29:54.835Z,67.50
2017-11-26T15:32:28.618Z,68.10
2017-11-26T15:35:01.267Z,67.50
2017-11-26T15:37:35.027Z,68.90
2017-11-26T15:40:09.334Z,69.70
2017-11-26T15:42:42.783Z,68.90
2017-11-26T15:45:15.891Z,69.30
2017-11-26T15:47:53.281Z,70.40
2017-11-26T15:50:27.415Z,70.60
2017-11-26T15:53:00.381Z,70.10
2017-11-26T15:55:34.017Z,70.00
2017-11-26T15:58:08.191Z,70.10
2017-11-26T16:00:42.655Z,71.90
2017-11-26T16:03:16.305Z,71.90
2017-11-26T16:05:49.448Z,71.50
2017-11-26T16:08:22.972Z,72.00
2017-11-26T16:10:56.917Z,71.90
2017-11-26T16:13:31.445Z,72.40
2017-11-26T16:16:04.635Z,71.90
2017-11-26T16:18:37.236Z,71.60
2017-11-26T16:21:09.784Z,72.20
2017-11-26T16:23:42.514Z,72.00
2017-11-26T16:26:16.562Z,72.70
2017-11-26T16:28:49.364Z,72.20
2017-11-26T16:31:27.591Z,73.90
2017-11-26T16:34:01.263Z,72.70
2017-11-26T16:36:33.705Z,72.00
2017-11-26T16:39:06.931Z,72.50
2017-11-26T16:41:44.421Z,71.80
2017-11-26T16:44:17.835Z,72.00
2017-11-26T16:46:51.494Z,72.50
2017-11-26T16:49:24.073Z,71.50
2017-11-26T16:51:58.727Z,72.80
2017-11-26T16:54:31.771Z,73.40
2017-11-26T16:57:04.369Z,72.80
2017-11-26T16:59:37.834Z,74.00
2017-11-26T17:02:10.639Z,73.40
2017-11-26T17:04:43.087Z,73.90
2017-11-26T17:07:15.474Z,74.30
2017-11-26T17:09:48.044Z,73.10
2017-11-26T17:12:21.500Z,73.70
2017-11-26T17:14:54.873Z,74.10
2017-11-26T17:17:27.339Z,74.60
2017-11-26T17:20:00.700Z,75.10
2017-11-26T17:22:34.300Z,74.80
2017-11-26T17:25:08.081Z,74.90
2017-11-26T17:27:41.106Z,74.40
2017-11-26T17:30:14.539Z,74.00
2017-11-26T17:32:48.307Z,74.00
2017-11-26T17:35:21.575Z,74.80
2017-11-26T17:37:54.945Z,75.20
2017-11-26T17:40:28.501Z,75.10
2017-11-26T17:43:01.099Z,74.70
2017-11-26T17:45:35.689Z,75.20
2017-11-26T17:48:08.952Z,75.60
2017-11-26T17:50:42.736Z,76.00
2017-11-26T17:53:16.261Z,76.10
2017-11-26T17:55:50.300Z,77.20
2017-11-26T17:58:23.862Z,76.00
2017-11-26T18:01:01.511Z,75.70
2017-11-26T18:03:34.584Z,75.80
2017-11-26T18:06:08.132Z,75.80
2017-11-26T18:08:41.418Z,76.00
2017-11-26T18:11:15.607Z,76.60
2017-11-26T18:13:49.538Z,76.60
2017-11-26T18:16:22.706Z,76.20
2017-11-26T18:18:56.635Z,76.80
2017-11-26T18:21:31.757Z,75.80
2017-11-26T18:24:05.018Z,74.80
2017-11-26T18:26:38.540Z,76.60
2017-11-26T18:29:12.033Z,75.90
2017-11-26T18:31:45.887Z,76.30
2017-11-26T18:34:18.944Z,75.60
2017-11-26T18:36:52.017Z,75.30
2017-11-26T18:39:25.147Z,75.30
2017-11-26T18:41:57.566Z,75.50
2017-11-26T18:44:30.847Z,75.40
2017-11-26T18:47:03.213Z,76.30
2017-11-26T18:49:46.986Z,76.30
2017-11-26T18:52:20.701Z,76.50
2017-11-26T18:54:53.567Z,76.40
2017-11-26T18:57:26.760Z,75.20
2017-11-26T18:59:59.438Z,75.80
2017-11-26T19:02:33.374Z,76.00
2017-11-26T19:05:06.945Z,76.20
2017-11-26T19:07:39.773Z,75.60
2017-11-26T19:10:12.175Z,75.20
2017-11-26T19:12:46.195Z,75.20
2017-11-26T19:15:20.220Z,75.10
2017-11-26T19:17:54.075Z,74.80
2017-11-26T19:20:27.207Z,74.10
2017-11-26T19:23:00.216Z,74.10
2017-11-26T19:25:33.808Z,75.20
2017-11-26T19:28:07.705Z,74.10
2017-11-26T19:30:41.044Z,74.10
2017-11-26T19:33:15.947Z,74.40
2017-11-26T19:35:49.585Z,74.10
2017-11-26T19:38:22.341Z,73.90
2017-11-26T19:40:55.220Z,73.90
2017-11-26T19:43:28.165Z,74.10
2017-11-26T19:46:01.424Z,73.70
2017-11-26T19:48:34.432Z,74.10
2017-11-26T19:51:07.660Z,74.50
2017-11-26T19:53:40.301Z,73.90
2017-11-26T19:56:12.955Z,74.10
2017-11-26T19:58:47.122Z,74.80
2017-11-26T20:01:19.888Z,73.80
2017-11-26T20:03:53.111Z,74.70
2017-11-26T20:06:25.790Z,74.30
2017-11-26T20:08:58.309Z,73.70
2017-11-26T20:11:32.249Z,73.40
2017-11-26T20:14:05.788Z,72.80
2017-11-26T20:16:39.224Z,73.70
2017-11-26T20:19:12.602Z,73.60
2017-11-26T20:21:46.958Z,74.70
2017-11-26T20:24:19.311Z,74.20
2017-11-26T20:26:51.648Z,73.50
2017-11-26T20:29:24.144Z,73.30
2017-11-26T20:31:56.688Z,74.50
2017-11-26T20:34:30.712Z,74.60
2017-11-26T20:37:03.389Z,74.10
2017-11-26T20:39:37.056Z,74.50
2017-11-26T20:42:10.577Z,75.20
2017-11-26T20:44:43.559Z,74.70
2017-11-26T20:47:19.984Z,74.30
2017-11-26T20:49:55.478Z,74.10
2017-11-26T20:52:28.713Z,74.60
2017-11-26T20:55:02.598Z,75.20
2017-11-26T20:57:39.016Z,75.20
2017-11-26T21:00:19.319Z,74.80
2017-11-26T21:02:56.018Z,76.40
2017-11-26T21:05:30.248Z,75.00
2017-11-26T21:08:08.727Z,75.00
2017-11-26T21:10:44.489Z,75.00
2017-11-26T21:13:21.078Z,75.50
2017-11-26T21:15:55.250Z,75.60
2017-11-26T21:18:35.175Z,75.30
2017-11-26T21:21:08.670Z,74.70
2017-11-26T21:23:43.268Z,74.60
2017-11-26T21:26:16.487Z,74.40
2017-11-26T21:28:50.173Z,74.60
2017-11-26T21:31:23.560Z,74.80
2017-11-26T21:33:57.558Z,75.40
2017-11-26T21:36:30.283Z,73.70
2017-11-26T21:39:04.255Z,74.40
2017-11-26T21:41:37.597Z,73.90
2017-11-26T21:44:11.709Z,75.40
2017-11-26T21:46:44.524Z,74.40
2017-11-26T21:49:19.754Z,76.30
2017-11-26T21:51:54.543Z,74.90
2017-11-26T21:54:27.661Z,74.90
2017-11-26T21:57:00.072Z,74.80
2017-11-26T21:59:32.464Z,75.70
2017-11-26T22:02:06.533Z,76.00
2017-11-26T22:04:40.050Z,75.80
2017-11-26T22:07:12.882Z,75.60
2017-11-26T22:09:46.201Z,76.00
2017-11-26T22:12:18.943Z,75.80
2017-11-26T22:14:54.407Z,75.70
2017-11-26T22:17:27.806Z,75.70
2017-11-26T22:20:01.596Z,75.70
2017-11-26T22:22:35.216Z,76.20
2017-11-26T22:25:08.747Z,75.30
2017-11-26T22:27:42.208Z,76.30
2017-11-26T22:30:14.637Z,75.60
2017-11-26T22:32:47.482Z,76.60
2017-11-26T22:35:23.645Z,75.60
2017-11-26T22:38:00.576Z,76.50
2017-11-26T22:40:33.825Z,76.00
2017-11-26T22:43:08.490Z,76.10
2017-11-26T22:45:42.133Z,76.40
2017-11-26T22:48:17.120Z,77.30
2017-11-26T22:50:50.058Z,75.80
2017-11-26T22:53:24.155Z,76.60
2017-11-26T22:55:58.294Z,77.00
2017-11-26T22:58:31.085Z,76.30
2017-11-26T23:01:03.747Z,76.60
2017-11-26T23:03:39.180Z,76.90
2017-11-26T23:06:12.929Z,76.70
2017-11-26T23:08:46.161Z,76.50
2017-11-26T23:11:19.347Z,77.40
2017-11-26T23:13:51.825Z,77.20
2017-11-26T23:16:24.443Z,76.70
2017-11-26T23:18:57.861Z,77.30
2017-11-26T23:21:30.596Z,76.60
2017-11-26T23:24:03.089Z,76.80
2017-11-26T23:26:37.319Z,76.30
2017-11-26T23:29:10.644Z,77.40
2017-11-26T23:31:44.274Z,77.70
2017-11-26T23:34:17.764Z,77.20
2017-11-26T23:36:51.826Z,77.90
2017-11-26T23:39:24.456Z,77.00
2017-11-26T23:41:57.750Z,77.40
2017-11-26T23:44:31.074Z,78.10
2017-11-26T23:47:04.643Z,78.10
2017-11-26T23:49:38.109Z,79.00
2017-11-26T23:52:10.791Z,77.80
2017-11-26T23:54:43.406Z,77.00
2017-11-26T23:57:15.777Z,76.80
2017-11-26T23:59:48.208Z,77.70
